22NR weather

CLOSED Bully Field
Burlington, North Carolina, United States

Public forecast

Using degrees Fahrenheit for public forecast. Weather courtesy of forecast.io.

METAR (pilot weather report)

Closest report is Burlington Alamance Regional Airport, 7.3 nm (13.5 km) SSW. Retrieved 2019/07/23 15:26 UTC (2 minutes ago):

KBUY 231526Z AUTO 00000KT 10SM FEW012 OVC017 26/22 A2987 RMK AO2 LTG DSNT E AND SE RAB03E20 P0000 T02610222

TAF (pilot weather forecast)

Closest forecast is Danville Regional Airport, 25.4 nm (47.0 km) N. Retrieved 2019/07/23 12:30 UTC (3 hours ago):

TAF KDAN 231128Z 2312/2412 23004KT 6SM -SHRA BR SCT010 OVC050 TEMPO 2314/2318 4SM TSRA BKN010 OVC025CB FM231800 36004KT P6SM -SHRA SCT007 OVC020 FM232300 36008KT P6SM BKN035 BKN100